Calvinia, South Africa
Current Conditions -  °F | °C
As of 11:00 PM on Friday 24 Oct 2014 (Local Time) from FACT Reporting Station
Clear Clear  
Wind Chill: 66°   Ceiling: Unl
Heat Index: 66°   Visibility: 6mi
Dew Point: 55°   Wind: 26mph
Humidity: 68%   Direction: 160°SSE
Pressure: 30.03"   Gusts: NA
Location:  31.47°S, 19.77°E
Report Text: FACT 242100Z 16023KT CAVOK 19/13 Q1017 NOSIG
Loading
Personal Weather Stations






























Interactive Weather Map
Tropical Storm Tracking
New forecast layout! Learn more

10-Day Weather Forecast

Advertisements
Track Severe Weather on mobile